Atascadero, CA

4:55 PM PST on December 22, 2014 (GMT -0800)
Ranchette | Change Station
CLOSE
Current Station
Personal Weather Station
Location: Atascadero, CA
Elevation: 1014 ft
Nearby Weather Stations

Elev 1014 ft 35.48 °N, 120.69 °W | Updated 12 minutes ago

Clear
Clear
58.5 °F
Feels Like 58.5 °F
N
4.2
Wind Variable Wind from North

Today
High -- | Low -- °F
--% Chance of Precip.
Yesterday
High -- | Low -- °F
Precip. -- in
7:08 AM 4:54 PM
New Moon, 1% visible
Pressure 30.14 in
Visibility 10.0 miles
Clouds Mostly Cloudy 2800 ft
Dew Point 53 °F
Humidity 82%
Rainfall 0.00 in
Snow Depth Not available.
UV 0 out of 12
Pollen 4.30 out of 12
Air Quality Not available.
Flu Activity Not available.
SPECI KPRB 230033Z AUTO 10012KT 10SM BKN028 16/12 A3014 RMK AO2 T01610117 TSNO

More Conditions Fewer Conditions

Pressure 30.14 in
Visibility 10.0 miles
Clouds Mostly Cloudy 2800 ft
Dew Point 53 °F
Humidity 82%
Rainfall 0.00 in
Snow Depth Not available.
UV 0 out of 12
Pollen 4.30 out of 12
Air Quality Not available.
Flu Activity Not available.
SPECI KPRB 230033Z AUTO 10012KT 10SM BKN028 16/12 A3014 RMK AO2 T01610117 TSNO

More Conditions Fewer Conditions

10-Day Weather Forecast

Almanac

Astronomy

Dec. 22, 2014 Rise Set
Actual Time
Civil Twilight
Nautical Twilight
Astronomical Twilight
Moon
Length of Visible Light
Length of Day
Tomorrow will be .
, % of the Moon is Illuminated

Today's Extremes

State Highs State Lows

Community

WunderPhotos

Upload Photos

1,779,740 photos uploaded!

WunderBlogs® & News

Nearby

Air Quality

  Air Quality AQ Index Pollutant
Not available.

Snow Depth

Station Depth Elevation

Earthquake Activity

City Distance Mag. Time & Date
Minimum magnitude displayed is 2.5.

Coastal Water Temperatures

Place Temperature

Nearby Weather Stations